createdAt,value
2018-12-12T02:26:18.344Z,1.73
2018-12-12T02:27:22.795Z,1.77
2018-12-12T02:28:26.727Z,1.60
2018-12-12T02:29:30.720Z,1.40
2018-12-12T02:30:34.787Z,1.90
2018-12-12T02:31:38.759Z,1.70
2018-12-12T02:32:42.705Z,1.63
2018-12-12T02:33:46.656Z,1.67
2018-12-12T02:34:50.663Z,1.80
2018-12-12T02:35:54.603Z,1.67
2018-12-12T02:36:58.651Z,1.50
2018-12-12T02:38:02.629Z,1.40
2018-12-12T02:39:07.074Z,1.70
2018-12-12T02:40:11.094Z,1.50
2018-12-12T13:55:47.143Z,2.20
2018-12-12T13:56:51.331Z,2.20
2018-12-12T13:57:55.320Z,2.63
2018-12-12T13:58:59.294Z,2.60
2018-12-12T14:00:03.273Z,2.70
2018-12-12T14:01:07.292Z,2.30
2018-12-12T14:02:11.248Z,3.07
2018-12-12T14:03:15.347Z,3.70
2018-12-12T14:04:22.761Z,2.90
2018-12-12T14:05:23.304Z,3.10
2018-12-12T14:06:27.660Z,3.37
2018-12-12T14:07:31.763Z,3.30
2018-12-12T14:08:36.040Z,2.87
2018-12-12T14:09:39.991Z,2.90
2018-12-12T14:10:44.001Z,3.00
2018-12-12T14:11:48.092Z,3.10
2018-12-12T14:12:52.353Z,3.13
2018-12-12T14:13:56.305Z,3.30
2018-12-12T14:15:00.249Z,2.97
2018-12-12T14:16:04.204Z,2.83
2018-12-12T14:17:08.201Z,3.23
2018-12-12T14:18:12.196Z,2.40
2018-12-12T14:19:16.194Z,2.70
2018-12-12T14:20:20.195Z,2.80
2018-12-12T14:21:24.173Z,2.80
2018-12-12T14:22:28.242Z,3.00
2018-12-12T14:23:32.611Z,2.70
2018-12-12T14:24:37.016Z,2.27
2018-12-12T14:25:41.464Z,2.90
2018-12-12T14:26:46.032Z,2.70
2018-12-12T14:27:50.493Z,2.93
2018-12-12T14:28:54.943Z,2.53
2018-12-12T14:29:59.276Z,2.47
2018-12-12T14:31:03.574Z,2.40
2018-12-12T14:32:08.332Z,2.40
2018-12-12T14:33:13.014Z,2.80
2018-12-12T14:34:17.287Z,2.70
2018-12-12T14:35:21.771Z,2.50
2018-12-12T14:36:26.514Z,2.50
2018-12-12T14:37:30.525Z,2.60
2018-12-12T14:38:34.611Z,2.50
2018-12-12T14:39:39.220Z,2.37
2018-12-12T14:40:43.305Z,2.60
2018-12-12T14:41:47.483Z,2.40
2018-12-12T14:42:52.095Z,2.60
2018-12-12T14:43:56.230Z,2.70
2018-12-12T14:45:00.232Z,3.00
2018-12-12T14:46:04.287Z,2.73
2018-12-12T14:47:08.404Z,2.60
2018-12-12T14:48:12.670Z,2.47
2018-12-12T14:49:17.109Z,2.83
2018-12-12T14:50:21.321Z,2.70
2018-12-12T14:51:26.456Z,2.47
2018-12-12T14:52:30.812Z,2.73
2018-12-12T14:53:35.063Z,3.00
2018-12-12T14:54:39.525Z,2.43
2018-12-12T14:55:43.888Z,2.83
2018-12-12T14:56:48.162Z,2.83
2018-12-12T14:57:52.486Z,2.60
2018-12-12T14:58:56.925Z,3.00
2018-12-12T15:00:01.781Z,2.93
2018-12-12T15:01:06.222Z,2.70
2018-12-12T15:02:10.458Z,2.20
2018-12-12T15:03:15.320Z,2.57
2018-12-12T15:04:20.697Z,2.60
2018-12-12T15:05:25.902Z,2.70
2018-12-12T15:06:30.448Z,2.73
2018-12-12T15:07:34.745Z,2.60
2018-12-12T15:08:39.068Z,2.47
2018-12-12T15:09:43.443Z,2.43
2018-12-12T15:10:48.226Z,2.60
2018-12-12T15:11:52.592Z,2.10
2018-12-12T15:12:56.828Z,2.57
2018-12-12T15:14:01.211Z,2.57
2018-12-12T15:15:05.477Z,2.53
2018-12-12T15:16:09.973Z,2.73
2018-12-12T15:17:14.347Z,2.30
2018-12-12T15:18:18.753Z,2.30
2018-12-12T15:19:23.100Z,2.23
2018-12-12T15:20:27.580Z,2.80
2018-12-12T15:21:31.912Z,2.40
2018-12-12T15:22:36.343Z,2.60
2018-12-12T15:23:40.597Z,2.50
2018-12-12T15:24:44.981Z,2.47
2018-12-12T15:25:49.191Z,2.50
2018-12-12T15:26:53.885Z,2.70
2018-12-12T15:27:58.238Z,2.40
2018-12-12T15:29:02.237Z,2.77
2018-12-12T15:30:06.278Z,2.37
2018-12-12T15:31:10.663Z,2.40
2018-12-12T15:32:15.079Z,2.43
2018-12-12T15:33:19.358Z,2.33
2018-12-12T15:34:23.646Z,2.43
2018-12-12T15:35:28.041Z,2.90
2018-12-12T15:36:32.444Z,2.20
2018-12-12T15:37:36.969Z,2.80
2018-12-12T15:38:41.319Z,2.80
2018-12-12T15:39:45.610Z,2.37
2018-12-12T15:40:49.988Z,2.60
2018-12-12T15:41:53.967Z,2.47
2018-12-12T15:42:58.073Z,2.37
2018-12-12T15:44:02.254Z,2.50
2018-12-12T15:45:08.774Z,2.60
2018-12-12T15:46:15.139Z,2.47
2018-12-12T15:47:21.741Z,2.40
2018-12-12T15:48:28.460Z,2.50
2018-12-12T15:49:34.935Z,2.17
2018-12-12T15:50:40.011Z,2.50
2018-12-12T15:51:44.695Z,2.90
2018-12-12T15:52:50.477Z,2.50
2018-12-12T15:53:55.703Z,2.37
2018-12-12T15:55:00.546Z,2.17
2018-12-12T15:56:04.930Z,2.63
2018-12-12T15:57:09.130Z,2.30
2018-12-12T15:58:13.193Z,2.60
2018-12-12T15:59:17.317Z,2.40
2018-12-12T16:00:21.579Z,2.10
2018-12-12T16:01:25.664Z,2.20
2018-12-12T16:02:29.859Z,2.50
2018-12-12T16:03:33.986Z,3.10
2018-12-12T16:04:38.142Z,2.50
2018-12-12T16:05:42.353Z,2.80
2018-12-12T16:06:46.451Z,2.43
2018-12-12T16:07:50.864Z,2.40
2018-12-12T16:08:55.704Z,2.50
2018-12-12T16:10:00.282Z,2.80
2018-12-12T16:11:08.205Z,2.37
2018-12-12T16:12:09.211Z,2.37
2018-12-12T16:13:13.584Z,2.63
2018-12-12T16:14:18.699Z,2.30
2018-12-12T16:15:23.100Z,3.00
2018-12-12T16:16:27.479Z,2.60
2018-12-12T16:17:31.967Z,3.00
2018-12-12T16:18:36.376Z,2.17
2018-12-12T16:19:40.700Z,2.67
2018-12-12T16:20:45.299Z,2.50
2018-12-12T16:21:49.716Z,2.77
2018-12-12T16:22:53.955Z,2.27
2018-12-12T16:23:57.999Z,2.90
2018-12-12T16:25:02.461Z,2.67
2018-12-12T16:26:06.520Z,2.53
2018-12-12T16:27:10.598Z,2.80
2018-12-12T16:28:14.654Z,2.40
2018-12-12T16:29:18.709Z,2.90
2018-12-12T16:30:22.779Z,2.50
2018-12-12T16:31:26.832Z,2.70
2018-12-12T16:32:30.868Z,2.47
2018-12-12T16:33:34.910Z,2.80
2018-12-12T16:34:38.876Z,2.63
2018-12-12T16:35:43.145Z,2.60
2018-12-12T16:36:47.154Z,2.60
2018-12-12T16:37:51.156Z,2.40
2018-12-12T16:38:55.121Z,3.60
2018-12-12T16:39:59.459Z,2.83
2018-12-12T16:41:03.852Z,2.70
2018-12-12T16:42:07.895Z,2.87
2018-12-12T16:43:11.925Z,2.93
2018-12-12T16:44:15.949Z,2.37
2018-12-12T16:45:20.041Z,2.93
2018-12-12T16:46:24.093Z,2.60
2018-12-12T16:47:28.277Z,2.80
2018-12-12T16:48:32.619Z,2.80
2018-12-12T16:49:36.683Z,2.53
2018-12-12T16:50:40.798Z,3.10
2018-12-12T16:51:44.992Z,2.87
2018-12-12T16:52:49.018Z,2.77
2018-12-12T16:53:53.020Z,2.73
2018-12-12T16:54:57.115Z,2.60
2018-12-12T16:56:01.057Z,3.03
2018-12-12T16:57:05.182Z,2.77
2018-12-12T16:58:10.114Z,2.77
2018-12-12T16:59:14.357Z,2.63
2018-12-12T17:00:18.665Z,2.70
2018-12-12T17:01:22.668Z,2.60
2018-12-12T17:02:26.791Z,2.87
2018-12-12T17:03:31.323Z,2.87
2018-12-12T17:04:35.611Z,2.60
2018-12-12T17:05:40.023Z,2.70
2018-12-12T17:06:44.407Z,2.83
2018-12-12T17:07:48.611Z,2.80
2018-12-12T17:08:52.937Z,3.00
2018-12-12T17:09:57.229Z,2.50
2018-12-12T17:11:01.542Z,2.37
2018-12-12T17:12:05.786Z,2.70
2018-12-12T17:13:10.158Z,2.60
2018-12-12T17:14:14.670Z,2.70
2018-12-12T17:15:19.020Z,2.60
2018-12-12T17:16:23.429Z,5.97
2018-12-12T17:17:27.837Z,3.47
2018-12-12T17:18:32.213Z,3.57
2018-12-12T17:19:36.601Z,3.03
2018-12-12T17:20:40.772Z,3.10
2018-12-12T17:21:45.021Z,3.57
2018-12-12T17:22:49.234Z,2.63
2018-12-12T17:23:53.652Z,2.93
2018-12-12T17:24:58.158Z,3.00
2018-12-12T17:26:02.495Z,2.80
2018-12-12T17:27:06.878Z,2.67
2018-12-12T17:28:11.216Z,1.90
2018-12-12T17:29:15.621Z,2.40
2018-12-12T17:30:19.960Z,2.57
2018-12-12T17:31:23.930Z,3.40
2018-12-12T17:32:28.307Z,3.00
2018-12-12T17:33:32.762Z,3.27
2018-12-12T17:34:37.002Z,2.70
2018-12-12T17:35:41.453Z,2.40
2018-12-12T17:36:45.801Z,2.90
2018-12-12T17:37:50.181Z,3.47
2018-12-12T17:38:54.500Z,2.83
2018-12-12T17:39:58.951Z,2.70
2018-12-12T17:41:03.363Z,2.53
2018-12-12T17:42:07.614Z,2.67
2018-12-12T17:43:11.917Z,2.73
2018-12-12T17:44:16.221Z,2.40
2018-12-12T17:45:20.584Z,3.23
2018-12-12T17:46:24.656Z,2.43
2018-12-12T17:47:28.937Z,2.50
2018-12-12T17:48:33.409Z,2.77
2018-12-12T17:49:37.901Z,2.60
2018-12-12T17:50:42.381Z,2.90
2018-12-12T17:51:46.956Z,2.90
2018-12-12T17:52:51.269Z,2.70
2018-12-12T17:53:55.592Z,3.10
2018-12-12T17:54:59.879Z,2.30
2018-12-12T17:56:03.909Z,2.80
2018-12-12T17:57:08.011Z,2.37
2018-12-12T17:58:12.030Z,2.53
2018-12-12T17:59:16.455Z,2.77
2018-12-12T18:00:20.856Z,2.60
2018-12-12T18:01:25.177Z,2.53
2018-12-12T18:02:29.694Z,2.20
2018-12-12T18:03:34.171Z,2.40
2018-12-12T18:04:38.373Z,2.13
2018-12-12T18:05:42.796Z,2.20
2018-12-12T18:06:47.443Z,2.00
2018-12-12T18:07:52.164Z,2.30
2018-12-12T18:08:56.505Z,2.30
2018-12-12T18:10:01.116Z,2.27
2018-12-12T18:11:05.918Z,2.10
2018-12-12T18:12:10.410Z,2.00
2018-12-12T18:13:14.871Z,2.33
2018-12-12T18:14:19.475Z,2.17
2018-12-12T18:15:23.850Z,2.00
2018-12-12T18:16:28.326Z,2.20
2018-12-12T18:17:32.797Z,1.93
2018-12-12T18:22:56.296Z,2.10
2018-12-12T18:24:00.437Z,2.37
2018-12-12T18:25:04.474Z,2.10
2018-12-12T18:26:08.442Z,2.10
2018-12-12T18:27:12.489Z,2.33
2018-12-12T18:28:16.504Z,1.93
2018-12-12T18:29:20.604Z,2.30
2018-12-12T18:30:24.570Z,1.97
2018-12-12T18:31:28.585Z,2.30
2018-12-12T18:32:32.585Z,2.40
2018-12-12T18:33:36.609Z,2.60
2018-12-12T18:34:40.586Z,2.50
2018-12-12T18:35:44.693Z,2.13
2018-12-12T18:36:48.596Z,2.30
2018-12-12T18:37:52.587Z,2.30
2018-12-12T18:38:56.556Z,2.27
2018-12-12T18:40:00.556Z,2.27
2018-12-12T18:41:04.604Z,2.50
2018-12-12T18:42:08.607Z,2.37
2018-12-12T18:43:12.681Z,2.90
2018-12-12T18:44:16.712Z,2.53
2018-12-12T18:45:20.726Z,2.33
2018-12-12T18:46:24.729Z,2.40
2018-12-12T18:47:28.729Z,2.13
2018-12-12T18:48:32.954Z,2.03
2018-12-12T18:49:37.233Z,2.10
2018-12-12T18:50:41.194Z,2.10
2018-12-12T18:51:45.181Z,2.10
2018-12-12T18:52:49.144Z,2.27
2018-12-12T18:53:53.124Z,2.17
2018-12-12T18:54:57.214Z,2.60
2018-12-12T18:56:01.196Z,2.00
2018-12-12T18:57:05.211Z,1.87
2018-12-12T18:58:09.190Z,1.93
2018-12-12T18:59:13.154Z,2.47
2018-12-12T19:00:17.140Z,2.20
2018-12-12T19:01:21.185Z,2.17
2018-12-12T19:02:25.197Z,2.33
2018-12-12T19:03:29.649Z,2.47
2018-12-12T19:04:34.037Z,2.00
2018-12-12T19:05:38.019Z,2.20
2018-12-12T19:06:42.169Z,1.80
2018-12-12T19:07:46.191Z,2.10
2018-12-12T19:08:50.198Z,1.93
2018-12-12T19:09:54.192Z,1.90
2018-12-12T19:10:58.259Z,2.20
2018-12-12T19:12:02.247Z,2.27
2018-12-12T19:13:06.186Z,2.00
2018-12-12T19:14:10.230Z,2.10
2018-12-12T19:15:14.228Z,2.10
2018-12-12T19:16:18.354Z,1.90
2018-12-12T19:17:22.324Z,2.23
2018-12-12T19:18:26.341Z,1.90
2018-12-12T19:19:30.380Z,2.00
2018-12-12T19:20:34.576Z,2.03
2018-12-12T19:21:38.628Z,1.93
2018-12-12T19:22:42.627Z,2.10
2018-12-12T19:23:46.682Z,1.83
2018-12-12T19:24:50.666Z,2.10
2018-12-12T19:25:54.659Z,1.90
2018-12-12T19:26:58.670Z,2.13
2018-12-12T19:28:02.737Z,2.10
2018-12-12T19:29:06.745Z,2.13
2018-12-12T19:30:10.767Z,2.83
2018-12-12T19:31:14.754Z,3.73
2018-12-12T19:32:18.711Z,3.03
2018-12-12T19:33:22.722Z,2.30
2018-12-12T19:34:26.700Z,2.37
2018-12-12T19:35:34.793Z,1.93
2018-12-12T19:36:34.824Z,1.97
2018-12-12T19:37:39.473Z,2.17
2018-12-12T19:38:43.564Z,2.03
2018-12-12T19:39:47.491Z,2.20
2018-12-12T19:40:51.506Z,2.10
2018-12-12T19:41:55.498Z,2.10
2018-12-12T19:42:59.579Z,1.90
2018-12-12T19:44:03.653Z,1.93
2018-12-12T19:45:08.491Z,2.00
2018-12-12T19:46:12.583Z,2.00
2018-12-12T19:47:16.633Z,2.00
2018-12-12T19:48:20.698Z,1.77
2018-12-12T19:49:24.751Z,2.03
2018-12-12T19:50:28.794Z,1.80
2018-12-12T19:51:32.908Z,2.03
2018-12-12T19:52:36.927Z,2.10
2018-12-12T19:53:40.906Z,2.23
2018-12-12T19:54:44.848Z,2.13
2018-12-12T19:55:48.962Z,1.80
2018-12-12T19:56:52.965Z,2.27
2018-12-12T19:57:56.966Z,2.10
2018-12-12T19:59:00.958Z,2.03
2018-12-12T20:00:05.417Z,1.80
2018-12-12T20:01:09.410Z,2.00
2018-12-12T20:02:13.395Z,1.70
2018-12-12T20:03:17.439Z,1.80
2018-12-12T20:04:21.443Z,1.63
2018-12-12T20:05:25.512Z,1.77
2018-12-12T20:06:29.625Z,1.80
2018-12-12T20:07:33.687Z,1.80
2018-12-12T20:08:37.743Z,2.00
2018-12-12T20:09:41.804Z,2.07
2018-12-12T20:10:45.861Z,1.87
2018-12-12T20:11:50.102Z,1.50
2018-12-12T20:12:54.517Z,1.90
2018-12-12T20:13:58.903Z,1.70
2018-12-12T20:15:03.302Z,2.00
2018-12-12T20:16:07.752Z,1.60
2018-12-12T20:17:12.121Z,1.43
2018-12-12T20:18:16.502Z,1.73
2018-12-12T20:19:20.610Z,1.90
2018-12-12T20:20:24.926Z,1.70
2018-12-12T20:21:29.280Z,1.77
2018-12-12T20:22:33.566Z,1.80
2018-12-12T20:23:37.609Z,1.97
2018-12-12T20:24:41.735Z,1.70
2018-12-12T20:25:45.789Z,1.70
2018-12-12T20:26:49.882Z,1.53
2018-12-12T20:27:53.993Z,1.80
2018-12-12T20:28:58.021Z,1.67
2018-12-12T20:30:02.008Z,1.80
2018-12-12T20:31:06.044Z,1.60
2018-12-12T20:32:10.037Z,2.00
2018-12-12T20:33:14.069Z,1.43
2018-12-12T20:34:18.179Z,1.73
2018-12-12T20:35:22.478Z,2.30
2018-12-12T20:36:27.004Z,2.20
2018-12-12T20:37:31.442Z,1.83
2018-12-12T20:38:35.812Z,2.07
2018-12-12T20:39:40.223Z,2.10
2018-12-12T20:40:44.430Z,1.77
2018-12-12T20:41:48.683Z,2.00
2018-12-12T20:42:53.096Z,1.90
2018-12-12T20:43:57.516Z,2.00
2018-12-12T20:45:01.853Z,1.70
2018-12-12T20:46:06.167Z,1.80
2018-12-12T20:47:10.625Z,1.60
2018-12-12T20:48:14.951Z,2.00
2018-12-12T20:49:19.324Z,2.10
2018-12-12T20:50:23.548Z,1.83
2018-12-12T20:51:27.922Z,1.80
2018-12-12T20:52:32.340Z,2.00
2018-12-12T20:53:36.535Z,1.80
2018-12-12T20:54:40.995Z,1.90
2018-12-12T20:55:45.333Z,1.57
2018-12-12T20:56:49.692Z,2.00
2018-12-12T20:57:53.975Z,1.80
2018-12-12T20:58:58.221Z,1.90
2018-12-12T21:00:02.645Z,1.80
2018-12-12T21:01:06.972Z,1.90
2018-12-12T21:02:11.191Z,1.63
2018-12-12T21:03:15.520Z,1.80
2018-12-12T21:04:19.799Z,2.00
2018-12-12T21:05:24.110Z,1.90
2018-12-12T21:06:28.496Z,1.73
2018-12-12T21:07:32.878Z,1.80
2018-12-12T21:08:37.285Z,2.07
2018-12-12T21:09:41.660Z,1.90
2018-12-12T21:10:45.998Z,1.70
2018-12-12T21:11:50.248Z,1.87
2018-12-12T21:12:54.616Z,1.80
2018-12-12T21:13:58.928Z,2.30
2018-12-12T21:15:03.328Z,2.57
2018-12-12T21:16:07.651Z,1.80
2018-12-12T21:17:11.934Z,2.13
2018-12-12T21:18:16.148Z,2.10
2018-12-12T21:19:20.476Z,1.80
2018-12-12T21:20:24.889Z,1.97
2018-12-12T21:21:29.351Z,1.70
2018-12-12T21:22:33.579Z,2.07
2018-12-12T21:23:37.515Z,1.97
2018-12-12T21:24:41.500Z,2.00
2018-12-12T21:25:45.521Z,2.00
2018-12-12T21:26:49.519Z,1.70
2018-12-12T21:27:53.435Z,1.77
2018-12-12T21:28:57.452Z,1.93
2018-12-12T21:30:01.389Z,1.80
2018-12-12T21:31:05.393Z,1.90
2018-12-12T21:32:09.454Z,1.90
2018-12-12T21:33:13.429Z,1.70
2018-12-12T21:34:17.428Z,1.80
2018-12-12T21:35:21.451Z,2.10
2018-12-12T21:36:25.741Z,1.80
2018-12-12T21:37:30.104Z,1.67
2018-12-12T21:38:34.398Z,1.97
2018-12-12T21:39:38.391Z,1.90
2018-12-12T21:40:42.306Z,1.80
2018-12-12T21:41:46.306Z,1.90
2018-12-12T21:42:50.400Z,1.80
2018-12-12T21:43:54.405Z,2.43
2018-12-12T21:44:58.375Z,1.50
2018-12-12T21:46:02.338Z,2.00
2018-12-12T21:47:06.431Z,1.70
2018-12-12T21:48:10.569Z,2.00
2018-12-12T21:49:14.549Z,1.97
2018-12-12T21:50:18.473Z,2.20
2018-12-12T21:51:22.497Z,2.30
2018-12-12T21:52:26.427Z,2.47
2018-12-12T21:53:30.420Z,1.90
2018-12-12T21:54:34.401Z,2.37
2018-12-12T21:55:38.352Z,2.20
2018-12-12T21:56:42.294Z,2.00
2018-12-12T21:57:46.263Z,1.90
2018-12-12T21:58:50.224Z,1.97
2018-12-12T21:59:54.207Z,2.00
2018-12-12T22:00:58.143Z,1.97
2018-12-12T22:02:02.122Z,2.10
2018-12-12T22:03:06.064Z,1.90
2018-12-12T22:04:10.080Z,1.80
2018-12-12T22:05:17.229Z,1.90
2018-12-12T22:06:21.316Z,2.10
2018-12-12T22:07:25.272Z,1.97
2018-12-12T22:08:29.233Z,1.90
2018-12-12T22:09:33.234Z,2.10
2018-12-12T22:10:37.202Z,2.07
2018-12-12T22:11:41.179Z,1.87
2018-12-12T22:12:45.094Z,2.23
2018-12-12T22:13:49.002Z,1.80
2018-12-12T22:14:53.064Z,1.93
2018-12-12T22:15:56.987Z,2.00
2018-12-12T22:17:01.101Z,2.00
2018-12-12T22:18:05.149Z,1.93
2018-12-12T22:19:09.117Z,1.87
2018-12-12T22:20:13.160Z,1.90
2018-12-12T22:21:17.135Z,1.83
2018-12-12T22:22:21.061Z,1.70
2018-12-12T22:23:25.016Z,2.23
2018-12-12T22:24:30.204Z,2.10
2018-12-12T22:25:34.180Z,1.73
2018-12-12T22:26:38.146Z,2.00
2018-12-12T22:27:42.172Z,1.90
2018-12-12T22:28:46.214Z,1.63
2018-12-12T22:29:50.188Z,2.00
2018-12-12T22:30:54.247Z,2.33
2018-12-12T22:31:58.199Z,2.00
2018-12-12T22:33:02.146Z,1.90
2018-12-12T22:34:06.584Z,2.10
2018-12-12T22:35:10.497Z,2.00
2018-12-12T22:36:14.434Z,1.80
2018-12-12T22:37:18.409Z,2.10
2018-12-12T22:38:22.382Z,1.50
2018-12-12T22:39:26.827Z,1.83
2018-12-12T22:40:32.256Z,2.10
2018-12-12T22:41:36.908Z,2.27
2018-12-12T22:42:42.093Z,1.93
2018-12-12T22:43:46.413Z,1.93
2018-12-12T22:44:51.624Z,1.90
2018-12-12T22:45:56.459Z,2.00
2018-12-12T22:47:01.123Z,1.90
2018-12-12T22:48:05.888Z,1.97
2018-12-12T22:49:10.120Z,1.77
2018-12-12T22:50:14.984Z,1.93
2018-12-12T22:51:18.940Z,2.03
2018-12-12T22:52:23.235Z,2.00
2018-12-12T22:53:27.588Z,1.93
2018-12-12T22:54:32.142Z,1.90
2018-12-12T22:55:37.064Z,1.97
2018-12-12T22:56:41.684Z,1.93
2018-12-12T22:57:46.241Z,1.80
2018-12-12T22:58:50.718Z,1.80
2018-12-12T22:59:55.221Z,1.83
2018-12-12T23:01:05.749Z,1.93
2018-12-12T23:02:10.174Z,1.80
2018-12-12T23:03:14.994Z,2.00
2018-12-12T23:04:19.575Z,1.63
2018-12-12T23:05:23.943Z,2.20
2018-12-12T23:06:28.383Z,1.77
2018-12-12T23:07:32.829Z,2.03
2018-12-12T23:08:37.402Z,1.87
2018-12-12T23:09:41.827Z,1.83
2018-12-12T23:10:46.145Z,1.77
2018-12-12T23:11:51.468Z,1.77
2018-12-12T23:12:56.791Z,1.70
2018-12-12T23:14:01.318Z,1.70
2018-12-12T23:15:06.231Z,1.70
2018-12-12T23:16:10.813Z,1.80
2018-12-12T23:17:15.166Z,1.70
2018-12-12T23:18:19.782Z,1.83
2018-12-12T23:19:24.573Z,1.80
2018-12-12T23:20:30.041Z,1.70
2018-12-12T23:21:34.983Z,1.77
2018-12-12T23:22:39.630Z,1.80
2018-12-12T23:23:44.151Z,1.70
2018-12-12T23:24:48.297Z,2.07
2018-12-12T23:25:52.935Z,1.90
2018-12-12T23:26:57.437Z,1.60
2018-12-12T23:28:02.035Z,1.50
2018-12-12T23:29:06.338Z,1.70
2018-12-12T23:30:10.688Z,1.70
2018-12-12T23:31:14.915Z,1.70
2018-12-12T23:32:20.180Z,1.80
2018-12-12T23:33:24.589Z,1.80
2018-12-12T23:34:29.146Z,1.93
2018-12-12T23:35:33.880Z,1.77
2018-12-12T23:36:38.258Z,1.90
2018-12-12T23:37:42.868Z,2.00
2018-12-12T23:38:47.493Z,1.57
2018-12-12T23:39:51.943Z,1.70
2018-12-12T23:40:56.308Z,1.70
2018-12-12T23:42:01.604Z,1.60
2018-12-12T23:43:06.039Z,1.90
2018-12-12T23:44:10.561Z,1.90
2018-12-12T23:45:15.995Z,1.90
2018-12-12T23:46:20.251Z,1.90
2018-12-12T23:47:25.125Z,1.60
2018-12-12T23:48:29.281Z,1.73
2018-12-12T23:49:34.187Z,1.60
2018-12-12T23:50:38.596Z,1.80
2018-12-12T23:51:42.741Z,1.83
2018-12-12T23:52:47.034Z,1.87
2018-12-12T23:53:51.566Z,1.80
2018-12-12T23:54:56.227Z,1.80
2018-12-12T23:56:00.663Z,1.90
2018-12-12T23:57:05.146Z,1.57
2018-12-12T23:58:09.453Z,1.70
2018-12-12T23:59:13.927Z,1.87
